sensor_id;sensor_type;location;lat;lon;timestamp;P1;durP1;ratioP1;P2;durP2;ratioP2
43509;SDS011;29105;57.764;40.952;2022-07-29T00:00:21;14.50;;;11.65;;
43509;SDS011;29105;57.764;40.952;2022-07-29T00:02:52;14.13;;;10.93;;
43509;SDS011;29105;57.764;40.952;2022-07-29T00:05:17;13.63;;;10.35;;
43509;SDS011;29105;57.764;40.952;2022-07-29T00:07:43;16.02;;;11.00;;
43509;SDS011;29105;57.764;40.952;2022-07-29T00:10:09;15.00;;;11.90;;
43509;SDS011;29105;57.764;40.952;2022-07-29T00:12:41;13.77;;;11.00;;
43509;SDS011;29105;57.764;40.952;2022-07-29T00:15:06;14.68;;;10.90;;
43509;SDS011;29105;57.764;40.952;2022-07-29T00:17:33;25.17;;;12.10;;
43509;SDS011;29105;57.764;40.952;2022-07-29T00:19:59;15.05;;;11.98;;
43509;SDS011;29105;57.764;40.952;2022-07-29T00:22:25;14.02;;;10.43;;
43509;SDS011;29105;57.764;40.952;2022-07-29T00:24:50;14.98;;;11.13;;
43509;SDS011;29105;57.764;40.952;2022-07-29T00:27:16;15.32;;;10.90;;
43509;SDS011;29105;57.764;40.952;2022-07-29T00:29:42;15.35;;;11.40;;
43509;SDS011;29105;57.764;40.952;2022-07-29T00:32:08;16.80;;;10.32;;
43509;SDS011;29105;57.764;40.952;2022-07-29T00:34:34;15.05;;;11.35;;
43509;SDS011;29105;57.764;40.952;2022-07-29T00:37:18;15.45;;;11.07;;
43509;SDS011;29105;57.764;40.952;2022-07-29T00:39:44;14.02;;;11.38;;
43509;SDS011;29105;57.764;40.952;2022-07-29T00:42:09;12.48;;;10.35;;
43509;SDS011;29105;57.764;40.952;2022-07-29T00:44:38;14.40;;;10.10;;
43509;SDS011;29105;57.764;40.952;2022-07-29T00:47:05;14.77;;;10.02;;
43509;SDS011;29105;57.764;40.952;2022-07-29T00:49:32;12.85;;;10.45;;
43509;SDS011;29105;57.764;40.952;2022-07-29T00:52:01;15.68;;;11.90;;
43509;SDS011;29105;57.764;40.952;2022-07-29T00:54:28;12.15;;;10.10;;
43509;SDS011;29105;57.764;40.952;2022-07-29T00:56:55;14.32;;;10.07;;
43509;SDS011;29105;57.764;40.952;2022-07-29T00:59:23;12.88;;;10.55;;
43509;SDS011;29105;57.764;40.952;2022-07-29T01:01:48;13.90;;;9.90;;
43509;SDS011;29105;57.764;40.952;2022-07-29T01:04:14;10.48;;;8.70;;
43509;SDS011;29105;57.764;40.952;2022-07-29T01:06:40;11.02;;;9.70;;
43509;SDS011;29105;57.764;40.952;2022-07-29T01:09:06;10.50;;;9.32;;
43509;SDS011;29105;57.764;40.952;2022-07-29T01:11:33;11.43;;;9.63;;
43509;SDS011;29105;57.764;40.952;2022-07-29T01:13:59;12.35;;;9.50;;
43509;SDS011;29105;57.764;40.952;2022-07-29T01:16:33;11.10;;;8.93;;
43509;SDS011;29105;57.764;40.952;2022-07-29T01:19:11;18.83;;;9.20;;
43509;SDS011;29105;57.764;40.952;2022-07-29T01:21:48;10.52;;;8.88;;
43509;SDS011;29105;57.764;40.952;2022-07-29T01:26:59;10.80;;;9.10;;
43509;SDS011;29105;57.764;40.952;2022-07-29T01:29:30;10.85;;;8.75;;
43509;SDS011;29105;57.764;40.952;2022-07-29T01:32:04;18.52;;;9.77;;
43509;SDS011;29105;57.764;40.952;2022-07-29T01:34:49;15.07;;;10.55;;
43509;SDS011;29105;57.764;40.952;2022-07-29T01:37:42;11.23;;;9.15;;
43509;SDS011;29105;57.764;40.952;2022-07-29T01:43:06;11.85;;;9.85;;
43509;SDS011;29105;57.764;40.952;2022-07-29T01:45:38;29.58;;;23.63;;
43509;SDS011;29105;57.764;40.952;2022-07-29T01:50:46;13.88;;;11.65;;
43509;SDS011;29105;57.764;40.952;2022-07-29T01:53:14;19.02;;;14.82;;
43509;SDS011;29105;57.764;40.952;2022-07-29T01:55:44;14.38;;;10.82;;
43509;SDS011;29105;57.764;40.952;2022-07-29T01:58:10;15.88;;;10.45;;
43509;SDS011;29105;57.764;40.952;2022-07-29T02:00:36;16.88;;;10.85;;
43509;SDS011;29105;57.764;40.952;2022-07-29T02:03:04;10.18;;;8.75;;
43509;SDS011;29105;57.764;40.952;2022-07-29T02:05:32;10.15;;;8.52;;
43509;SDS011;29105;57.764;40.952;2022-07-29T02:07:59;19.70;;;9.20;;
43509;SDS011;29105;57.764;40.952;2022-07-29T02:10:27;16.05;;;10.52;;
43509;SDS011;29105;57.764;40.952;2022-07-29T02:12:54;13.57;;;10.63;;
43509;SDS011;29105;57.764;40.952;2022-07-29T02:15:22;15.05;;;10.80;;
43509;SDS011;29105;57.764;40.952;2022-07-29T02:17:51;14.45;;;9.77;;
43509;SDS011;29105;57.764;40.952;2022-07-29T02:20:20;11.88;;;10.30;;
43509;SDS011;29105;57.764;40.952;2022-07-29T02:22:47;9.80;;;8.55;;
43509;SDS011;29105;57.764;40.952;2022-07-29T02:25:15;11.50;;;10.13;;
43509;SDS011;29105;57.764;40.952;2022-07-29T02:27:41;12.68;;;10.40;;
43509;SDS011;29105;57.764;40.952;2022-07-29T02:30:08;15.20;;;10.63;;
43509;SDS011;29105;57.764;40.952;2022-07-29T02:32:35;10.50;;;8.82;;
43509;SDS011;29105;57.764;40.952;2022-07-29T02:35:03;77.05;;;48.58;;
43509;SDS011;29105;57.764;40.952;2022-07-29T02:37:29;31.55;;;23.17;;
43509;SDS011;29105;57.764;40.952;2022-07-29T02:39:56;22.25;;;15.27;;
43509;SDS011;29105;57.764;40.952;2022-07-29T02:42:22;14.75;;;12.15;;
43509;SDS011;29105;57.764;40.952;2022-07-29T02:44:49;18.45;;;13.10;;
43509;SDS011;29105;57.764;40.952;2022-07-29T02:47:30;16.65;;;11.88;;
43509;SDS011;29105;57.764;40.952;2022-07-29T02:50:00;16.02;;;13.20;;
43509;SDS011;29105;57.764;40.952;2022-07-29T02:52:41;14.65;;;12.73;;
43509;SDS011;29105;57.764;40.952;2022-07-29T02:57:49;17.60;;;12.68;;
43509;SDS011;29105;57.764;40.952;2022-07-29T03:00:18;17.77;;;12.57;;
43509;SDS011;29105;57.764;40.952;2022-07-29T03:02:47;14.50;;;6.32;;
43509;SDS011;29105;57.764;40.952;2022-07-29T03:05:17;9.50;;;5.53;;
43509;SDS011;29105;57.764;40.952;2022-07-29T03:07:49;13.20;;;7.20;;
43509;SDS011;29105;57.764;40.952;2022-07-29T03:10:18;12.68;;;7.38;;
43509;SDS011;29105;57.764;40.952;2022-07-29T03:12:44;14.65;;;7.50;;
43509;SDS011;29105;57.764;40.952;2022-07-29T03:15:10;12.90;;;7.43;;
43509;SDS011;29105;57.764;40.952;2022-07-29T03:17:38;15.38;;;7.90;;
43509;SDS011;29105;57.764;40.952;2022-07-29T03:20:05;15.23;;;7.93;;
43509;SDS011;29105;57.764;40.952;2022-07-29T03:22:32;15.15;;;8.40;;
43509;SDS011;29105;57.764;40.952;2022-07-29T03:25:07;16.25;;;7.57;;
43509;SDS011;29105;57.764;40.952;2022-07-29T03:27:33;12.68;;;6.53;;
43509;SDS011;29105;57.764;40.952;2022-07-29T03:29:59;11.82;;;6.95;;
43509;SDS011;29105;57.764;40.952;2022-07-29T03:32:26;13.70;;;6.35;;
43509;SDS011;29105;57.764;40.952;2022-07-29T03:34:51;56.92;;;31.88;;
43509;SDS011;29105;57.764;40.952;2022-07-29T03:37:17;18.20;;;10.25;;
43509;SDS011;29105;57.764;40.952;2022-07-29T03:39:43;15.77;;;9.23;;
43509;SDS011;29105;57.764;40.952;2022-07-29T03:42:10;18.50;;;7.35;;
43509;SDS011;29105;57.764;40.952;2022-07-29T03:44:38;12.52;;;6.80;;
43509;SDS011;29105;57.764;40.952;2022-07-29T03:47:06;13.85;;;7.68;;
43509;SDS011;29105;57.764;40.952;2022-07-29T03:49:32;19.23;;;9.38;;
43509;SDS011;29105;57.764;40.952;2022-07-29T03:51:58;16.83;;;7.80;;
43509;SDS011;29105;57.764;40.952;2022-07-29T03:54:23;16.45;;;7.65;;
43509;SDS011;29105;57.764;40.952;2022-07-29T03:56:51;12.73;;;5.82;;
43509;SDS011;29105;57.764;40.952;2022-07-29T03:59:18;18.23;;;7.28;;
43509;SDS011;29105;57.764;40.952;2022-07-29T04:01:45;13.57;;;6.55;;
43509;SDS011;29105;57.764;40.952;2022-07-29T04:04:11;13.48;;;5.95;;
43509;SDS011;29105;57.764;40.952;2022-07-29T04:06:41;10.55;;;5.43;;
43509;SDS011;29105;57.764;40.952;2022-07-29T04:09:08;12.32;;;5.78;;
43509;SDS011;29105;57.764;40.952;2022-07-29T04:11:34;12.55;;;6.10;;
43509;SDS011;29105;57.764;40.952;2022-07-29T04:14:01;38.47;;;24.67;;
43509;SDS011;29105;57.764;40.952;2022-07-29T04:16:27;34.38;;;22.48;;
43509;SDS011;29105;57.764;40.952;2022-07-29T04:18:52;31.63;;;22.00;;
43509;SDS011;29105;57.764;40.952;2022-07-29T04:21:18;34.22;;;23.33;;
43509;SDS011;29105;57.764;40.952;2022-07-29T04:23:44;31.50;;;22.73;;
43509;SDS011;29105;57.764;40.952;2022-07-29T04:26:13;37.10;;;22.92;;
43509;SDS011;29105;57.764;40.952;2022-07-29T04:28:39;38.63;;;23.90;;
43509;SDS011;29105;57.764;40.952;2022-07-29T04:31:07;44.15;;;25.02;;
43509;SDS011;29105;57.764;40.952;2022-07-29T04:33:33;41.67;;;24.02;;
43509;SDS011;29105;57.764;40.952;2022-07-29T04:35:59;21.17;;;10.45;;
43509;SDS011;29105;57.764;40.952;2022-07-29T04:38:25;22.90;;;10.77;;
43509;SDS011;29105;57.764;40.952;2022-07-29T04:40:57;22.80;;;11.15;;
43509;SDS011;29105;57.764;40.952;2022-07-29T04:43:23;19.48;;;10.23;;
43509;SDS011;29105;57.764;40.952;2022-07-29T04:45:49;20.92;;;10.77;;
43509;SDS011;29105;57.764;40.952;2022-07-29T04:48:15;19.48;;;9.73;;
43509;SDS011;29105;57.764;40.952;2022-07-29T04:50:41;20.10;;;9.00;;
43509;SDS011;29105;57.764;40.952;2022-07-29T04:53:07;19.08;;;8.80;;
43509;SDS011;29105;57.764;40.952;2022-07-29T04:55:33;20.60;;;9.98;;
43509;SDS011;29105;57.764;40.952;2022-07-29T04:58:00;17.13;;;7.65;;
43509;SDS011;29105;57.764;40.952;2022-07-29T05:00:26;17.02;;;7.47;;
43509;SDS011;29105;57.764;40.952;2022-07-29T05:02:52;14.98;;;7.13;;
43509;SDS011;29105;57.764;40.952;2022-07-29T05:05:18;15.27;;;6.57;;
43509;SDS011;29105;57.764;40.952;2022-07-29T05:07:44;13.25;;;6.28;;
43509;SDS011;29105;57.764;40.952;2022-07-29T05:10:09;10.93;;;5.35;;
43509;SDS011;29105;57.764;40.952;2022-07-29T05:12:36;12.63;;;6.05;;
43509;SDS011;29105;57.764;40.952;2022-07-29T05:15:04;11.07;;;5.35;;
43509;SDS011;29105;57.764;40.952;2022-07-29T05:17:30;8.50;;;4.18;;
43509;SDS011;29105;57.764;40.952;2022-07-29T05:19:56;9.38;;;4.85;;
43509;SDS011;29105;57.764;40.952;2022-07-29T05:22:22;7.10;;;3.78;;
43509;SDS011;29105;57.764;40.952;2022-07-29T05:24:48;6.68;;;3.50;;
43509;SDS011;29105;57.764;40.952;2022-07-29T05:27:13;6.05;;;3.50;;
43509;SDS011;29105;57.764;40.952;2022-07-29T05:29:39;6.32;;;3.13;;
43509;SDS011;29105;57.764;40.952;2022-07-29T05:32:05;5.78;;;2.78;;
43509;SDS011;29105;57.764;40.952;2022-07-29T05:34:31;4.30;;;2.50;;
43509;SDS011;29105;57.764;40.952;2022-07-29T05:36:57;3.90;;;1.73;;
43509;SDS011;29105;57.764;40.952;2022-07-29T05:39:23;3.15;;;1.55;;
43509;SDS011;29105;57.764;40.952;2022-07-29T05:41:49;2.10;;;1.23;;
43509;SDS011;29105;57.764;40.952;2022-07-29T05:44:14;6.75;;;2.03;;
43509;SDS011;29105;57.764;40.952;2022-07-29T05:46:40;4.45;;;1.77;;
43509;SDS011;29105;57.764;40.952;2022-07-29T05:49:06;3.72;;;1.58;;
43509;SDS011;29105;57.764;40.952;2022-07-29T05:51:33;2.30;;;1.10;;
43509;SDS011;29105;57.764;40.952;2022-07-29T05:53:59;2.95;;;0.82;;
43509;SDS011;29105;57.764;40.952;2022-07-29T05:56:24;2.17;;;1.08;;
43509;SDS011;29105;57.764;40.952;2022-07-29T05:58:51;2.88;;;0.50;;
43509;SDS011;29105;57.764;40.952;2022-07-29T06:01:17;2.13;;;0.65;;
43509;SDS011;29105;57.764;40.952;2022-07-29T06:03:43;0.95;;;0.40;;
43509;SDS011;29105;57.764;40.952;2022-07-29T06:06:08;1.38;;;0.28;;
43509;SDS011;29105;57.764;40.952;2022-07-29T06:08:34;0.45;;;0.13;;
43509;SDS011;29105;57.764;40.952;2022-07-29T06:11:01;1.25;;;0.50;;
43509;SDS011;29105;57.764;40.952;2022-07-29T06:13:28;1.15;;;0.75;;
43509;SDS011;29105;57.764;40.952;2022-07-29T06:15:54;1.20;;;0.88;;
43509;SDS011;29105;57.764;40.952;2022-07-29T06:18:20;2.88;;;0.90;;
43509;SDS011;29105;57.764;40.952;2022-07-29T06:20:49;0.88;;;0.60;;
43509;SDS011;29105;57.764;40.952;2022-07-29T06:23:16;3.50;;;1.20;;
43509;SDS011;29105;57.764;40.952;2022-07-29T06:25:42;3.25;;;1.80;;
43509;SDS011;29105;57.764;40.952;2022-07-29T06:28:08;0.95;;;0.70;;
43509;SDS011;29105;57.764;40.952;2022-07-29T06:30:33;1.92;;;0.50;;
43509;SDS011;29105;57.764;40.952;2022-07-29T06:33:00;1.10;;;0.80;;
43509;SDS011;29105;57.764;40.952;2022-07-29T06:35:27;1.23;;;0.80;;
43509;SDS011;29105;57.764;40.952;2022-07-29T06:37:53;4.97;;;0.90;;
43509;SDS011;29105;57.764;40.952;2022-07-29T06:40:19;1.65;;;1.00;;
43509;SDS011;29105;57.764;40.952;2022-07-29T06:43:03;1.30;;;0.98;;
43509;SDS011;29105;57.764;40.952;2022-07-29T06:45:29;1.00;;;0.73;;
43509;SDS011;29105;57.764;40.952;2022-07-29T06:47:55;1.20;;;0.35;;
43509;SDS011;29105;57.764;40.952;2022-07-29T06:50:23;1.67;;;0.60;;
43509;SDS011;29105;57.764;40.952;2022-07-29T06:52:49;1.23;;;0.35;;
43509;SDS011;29105;57.764;40.952;2022-07-29T06:55:15;2.10;;;0.40;;
43509;SDS011;29105;57.764;40.952;2022-07-29T06:57:40;1.95;;;0.40;;
43509;SDS011;29105;57.764;40.952;2022-07-29T07:00:06;2.10;;;0.73;;
43509;SDS011;29105;57.764;40.952;2022-07-29T07:02:33;4.07;;;0.98;;
43509;SDS011;29105;57.764;40.952;2022-07-29T07:04:58;2.90;;;1.40;;
43509;SDS011;29105;57.764;40.952;2022-07-29T07:07:24;6.60;;;2.60;;
43509;SDS011;29105;57.764;40.952;2022-07-29T07:09:50;1.98;;;1.75;;
43509;SDS011;29105;57.764;40.952;2022-07-29T07:12:16;3.85;;;2.30;;
43509;SDS011;29105;57.764;40.952;2022-07-29T07:14:42;5.25;;;2.45;;
43509;SDS011;29105;57.764;40.952;2022-07-29T07:17:07;2.80;;;2.60;;
43509;SDS011;29105;57.764;40.952;2022-07-29T07:19:33;4.03;;;3.63;;
43509;SDS011;29105;57.764;40.952;2022-07-29T07:21:59;3.67;;;3.03;;
43509;SDS011;29105;57.764;40.952;2022-07-29T07:24:24;6.10;;;2.20;;
43509;SDS011;29105;57.764;40.952;2022-07-29T07:26:50;2.58;;;1.52;;
43509;SDS011;29105;57.764;40.952;2022-07-29T07:29:16;3.55;;;1.23;;
43509;SDS011;29105;57.764;40.952;2022-07-29T07:31:42;3.22;;;0.90;;
43509;SDS011;29105;57.764;40.952;2022-07-29T07:34:07;2.35;;;1.05;;
43509;SDS011;29105;57.764;40.952;2022-07-29T07:36:33;2.85;;;0.90;;
43509;SDS011;29105;57.764;40.952;2022-07-29T07:38:59;2.03;;;1.15;;
43509;SDS011;29105;57.764;40.952;2022-07-29T07:41:24;1.45;;;1.05;;
43509;SDS011;29105;57.764;40.952;2022-07-29T07:43:50;2.47;;;1.30;;
43509;SDS011;29105;57.764;40.952;2022-07-29T07:46:16;4.38;;;1.08;;
43509;SDS011;29105;57.764;40.952;2022-07-29T07:48:42;3.60;;;0.82;;
43509;SDS011;29105;57.764;40.952;2022-07-29T07:51:07;1.50;;;0.80;;
43509;SDS011;29105;57.764;40.952;2022-07-29T07:53:33;1.05;;;0.60;;
43509;SDS011;29105;57.764;40.952;2022-07-29T07:55:59;2.60;;;0.65;;
43509;SDS011;29105;57.764;40.952;2022-07-29T07:58:25;1.23;;;0.40;;
43509;SDS011;29105;57.764;40.952;2022-07-29T08:00:51;2.08;;;0.60;;
43509;SDS011;29105;57.764;40.952;2022-07-29T08:03:34;2.10;;;0.35;;
43509;SDS011;29105;57.764;40.952;2022-07-29T08:06:01;1.05;;;0.40;;
43509;SDS011;29105;57.764;40.952;2022-07-29T08:08:27;1.02;;;0.43;;
43509;SDS011;29105;57.764;40.952;2022-07-29T08:10:53;6.60;;;0.85;;
43509;SDS011;29105;57.764;40.952;2022-07-29T08:13:19;1.17;;;0.40;;
43509;SDS011;29105;57.764;40.952;2022-07-29T08:15:46;1.55;;;0.68;;
43509;SDS011;29105;57.764;40.952;2022-07-29T08:18:12;2.25;;;0.50;;
43509;SDS011;29105;57.764;40.952;2022-07-29T08:20:38;2.25;;;0.40;;
43509;SDS011;29105;57.764;40.952;2022-07-29T08:23:07;1.75;;;0.38;;
43509;SDS011;29105;57.764;40.952;2022-07-29T08:28:02;2.88;;;0.88;;
43509;SDS011;29105;57.764;40.952;2022-07-29T08:30:27;1.48;;;0.55;;
43509;SDS011;29105;57.764;40.952;2022-07-29T08:32:53;1.00;;;0.40;;
43509;SDS011;29105;57.764;40.952;2022-07-29T08:35:19;1.60;;;0.57;;
43509;SDS011;29105;57.764;40.952;2022-07-29T08:37:46;1.35;;;0.55;;
43509;SDS011;29105;57.764;40.952;2022-07-29T08:40:12;0.65;;;0.40;;
43509;SDS011;29105;57.764;40.952;2022-07-29T08:42:39;0.70;;;0.40;;
43509;SDS011;29105;57.764;40.952;2022-07-29T08:45:05;1.40;;;0.50;;
43509;SDS011;29105;57.764;40.952;2022-07-29T08:47:31;1.95;;;0.57;;
43509;SDS011;29105;57.764;40.952;2022-07-29T08:49:58;1.58;;;0.45;;
43509;SDS011;29105;57.764;40.952;2022-07-29T08:52:25;2.28;;;0.40;;
43509;SDS011;29105;57.764;40.952;2022-07-29T08:54:54;1.23;;;0.40;;
43509;SDS011;29105;57.764;40.952;2022-07-29T08:57:19;1.13;;;0.73;;
43509;SDS011;29105;57.764;40.952;2022-07-29T08:59:46;1.48;;;0.43;;
43509;SDS011;29105;57.764;40.952;2022-07-29T09:02:16;2.53;;;0.60;;
43509;SDS011;29105;57.764;40.952;2022-07-29T09:04:45;2.38;;;0.30;;
43509;SDS011;29105;57.764;40.952;2022-07-29T09:07:11;0.50;;;0.20;;
43509;SDS011;29105;57.764;40.952;2022-07-29T09:09:40;1.02;;;0.30;;
43509;SDS011;29105;57.764;40.952;2022-07-29T09:12:05;2.03;;;0.28;;
43509;SDS011;29105;57.764;40.952;2022-07-29T09:14:33;1.02;;;0.20;;
43509;SDS011;29105;57.764;40.952;2022-07-29T09:16:59;3.90;;;0.20;;
43509;SDS011;29105;57.764;40.952;2022-07-29T09:21:53;1.00;;;0.20;;
43509;SDS011;29105;57.764;40.952;2022-07-29T09:24:23;1.02;;;0.20;;
43509;SDS011;29105;57.764;40.952;2022-07-29T09:26:49;0.52;;;0.20;;
43509;SDS011;29105;57.764;40.952;2022-07-29T09:29:19;7.68;;;0.45;;
43509;SDS011;29105;57.764;40.952;2022-07-29T09:31:48;1.60;;;0.10;;
43509;SDS011;29105;57.764;40.952;2022-07-29T09:34:17;1.08;;;0.17;;
43509;SDS011;29105;57.764;40.952;2022-07-29T09:39:14;0.98;;;0.40;;
43509;SDS011;29105;57.764;40.952;2022-07-29T09:41:48;2.25;;;0.17;;
43509;SDS011;29105;57.764;40.952;2022-07-29T09:44:15;0.65;;;0.13;;
43509;SDS011;29105;57.764;40.952;2022-07-29T09:47:00;3.30;;;0.20;;
43509;SDS011;29105;57.764;40.952;2022-07-29T09:49:34;1.88;;;0.30;;
43509;SDS011;29105;57.764;40.952;2022-07-29T09:52:05;1.35;;;0.20;;
43509;SDS011;29105;57.764;40.952;2022-07-29T09:54:34;0.60;;;0.35;;
43509;SDS011;29105;57.764;40.952;2022-07-29T09:57:07;1.67;;;0.20;;
43509;SDS011;29105;57.764;40.952;2022-07-29T09:59:38;1.45;;;0.10;;
43509;SDS011;29105;57.764;40.952;2022-07-29T10:02:13;0.47;;;0.10;;
43509;SDS011;29105;57.764;40.952;2022-07-29T10:04:40;1.15;;;0.20;;
43509;SDS011;29105;57.764;40.952;2022-07-29T10:07:07;2.55;;;0.20;;
43509;SDS011;29105;57.764;40.952;2022-07-29T10:09:33;4.22;;;0.40;;
43509;SDS011;29105;57.764;40.952;2022-07-29T10:12:10;0.63;;;0.10;;
43509;SDS011;29105;57.764;40.952;2022-07-29T10:14:39;0.50;;;0.17;;
43509;SDS011;29105;57.764;40.952;2022-07-29T10:17:07;4.95;;;0.30;;
43509;SDS011;29105;57.764;40.952;2022-07-29T10:19:34;1.30;;;0.20;;
43509;SDS011;29105;57.764;40.952;2022-07-29T10:22:02;0.90;;;0.20;;
43509;SDS011;29105;57.764;40.952;2022-07-29T10:24:30;1.30;;;0.10;;
43509;SDS011;29105;57.764;40.952;2022-07-29T10:26:57;2.15;;;0.28;;
43509;SDS011;29105;57.764;40.952;2022-07-29T10:29:24;3.85;;;0.22;;
43509;SDS011;29105;57.764;40.952;2022-07-29T10:42:47;3.15;;;0.22;;
43509;SDS011;29105;57.764;40.952;2022-07-29T10:45:14;5.53;;;0.10;;
43509;SDS011;29105;57.764;40.952;2022-07-29T10:47:43;3.15;;;0.22;;
43509;SDS011;29105;57.764;40.952;2022-07-29T10:50:10;2.67;;;0.25;;
43509;SDS011;29105;57.764;40.952;2022-07-29T10:52:51;1.67;;;0.10;;
43509;SDS011;29105;57.764;40.952;2022-07-29T10:55:31;0.70;;;0.10;;
43509;SDS011;29105;57.764;40.952;2022-07-29T10:58:17;0.80;;;0.10;;
43509;SDS011;29105;57.764;40.952;2022-07-29T11:00:49;2.92;;;0.70;;
43509;SDS011;29105;57.764;40.952;2022-07-29T11:06:07;3.17;;;0.10;;
43509;SDS011;29105;57.764;40.952;2022-07-29T11:08:33;1.70;;;0.30;;
43509;SDS011;29105;57.764;40.952;2022-07-29T11:11:32;5.40;;;0.30;;
43509;SDS011;29105;57.764;40.952;2022-07-29T11:13:51;1.85;;;0.10;;
43509;SDS011;29105;57.764;40.952;2022-07-29T11:16:20;5.25;;;0.75;;
43509;SDS011;29105;57.764;40.952;2022-07-29T11:21:41;4.35;;;0.40;;
43509;SDS011;29105;57.764;40.952;2022-07-29T11:24:14;4.30;;;0.57;;
43509;SDS011;29105;57.764;40.952;2022-07-29T11:26:41;2.33;;;0.10;;
43509;SDS011;29105;57.764;40.952;2022-07-29T11:29:20;1.02;;;0.10;;
43509;SDS011;29105;57.764;40.952;2022-07-29T11:31:51;1.05;;;0.10;;
43509;SDS011;29105;57.764;40.952;2022-07-29T11:34:27;1.02;;;0.25;;
43509;SDS011;29105;57.764;40.952;2022-07-29T11:44:59;1.70;;;0.10;;
43509;SDS011;29105;57.764;40.952;2022-07-29T11:47:27;1.42;;;0.10;;
43509;SDS011;29105;57.764;40.952;2022-07-29T11:49:54;3.92;;;0.30;;
43509;SDS011;29105;57.764;40.952;2022-07-29T11:52:21;3.92;;;0.20;;
43509;SDS011;29105;57.764;40.952;2022-07-29T11:54:47;2.97;;;0.20;;
43509;SDS011;29105;57.764;40.952;2022-07-29T11:57:17;1.88;;;0.47;;
43509;SDS011;29105;57.764;40.952;2022-07-29T11:59:44;2.40;;;0.60;;
43509;SDS011;29105;57.764;40.952;2022-07-29T12:02:12;1.02;;;0.10;;
43509;SDS011;29105;57.764;40.952;2022-07-29T12:04:55;0.82;;;0.17;;
43509;SDS011;29105;57.764;40.952;2022-07-29T12:09:57;1.08;;;0.10;;
43509;SDS011;29105;57.764;40.952;2022-07-29T12:12:23;2.33;;;0.20;;
43509;SDS011;29105;57.764;40.952;2022-07-29T12:14:49;3.78;;;0.30;;
43509;SDS011;29105;57.764;40.952;2022-07-29T12:17:25;1.45;;;0.13;;
43509;SDS011;29105;57.764;40.952;2022-07-29T12:20:02;1.17;;;0.10;;
43509;SDS011;29105;57.764;40.952;2022-07-29T12:22:36;0.38;;;0.10;;
43509;SDS011;29105;57.764;40.952;2022-07-29T12:25:04;2.33;;;0.10;;
43509;SDS011;29105;57.764;40.952;2022-07-29T12:27:31;3.08;;;0.40;;
43509;SDS011;29105;57.764;40.952;2022-07-29T12:30:00;1.40;;;0.20;;
43509;SDS011;29105;57.764;40.952;2022-07-29T12:32:43;2.05;;;0.35;;
43509;SDS011;29105;57.764;40.952;2022-07-29T12:35:14;2.88;;;0.20;;
43509;SDS011;29105;57.764;40.952;2022-07-29T12:37:41;0.90;;;0.20;;
43509;SDS011;29105;57.764;40.952;2022-07-29T12:40:09;4.72;;;0.25;;
43509;SDS011;29105;57.764;40.952;2022-07-29T12:42:36;2.38;;;0.20;;
43509;SDS011;29105;57.764;40.952;2022-07-29T12:45:02;0.32;;;0.00;;
43509;SDS011;29105;57.764;40.952;2022-07-29T12:47:29;5.40;;;0.20;;
43509;SDS011;29105;57.764;40.952;2022-07-29T12:50:14;0.98;;;0.20;;
43509;SDS011;29105;57.764;40.952;2022-07-29T12:52:43;2.08;;;0.10;;
43509;SDS011;29105;57.764;40.952;2022-07-29T12:55:09;1.00;;;0.10;;
43509;SDS011;29105;57.764;40.952;2022-07-29T12:57:49;0.98;;;0.38;;
43509;SDS011;29105;57.764;40.952;2022-07-29T13:00:21;4.20;;;0.45;;
43509;SDS011;29105;57.764;40.952;2022-07-29T13:05:19;1.92;;;0.32;;
43509;SDS011;29105;57.764;40.952;2022-07-29T13:07:46;1.33;;;0.20;;
43509;SDS011;29105;57.764;40.952;2022-07-29T13:10:16;1.70;;;0.28;;
43509;SDS011;29105;57.764;40.952;2022-07-29T13:15:31;0.65;;;0.10;;
43509;SDS011;29105;57.764;40.952;2022-07-29T13:17:57;0.95;;;0.10;;
43509;SDS011;29105;57.764;40.952;2022-07-29T13:20:24;2.05;;;0.77;;
43509;SDS011;29105;57.764;40.952;2022-07-29T13:22:54;5.93;;;2.10;;
43509;SDS011;29105;57.764;40.952;2022-07-29T13:25:28;2.67;;;0.75;;
43509;SDS011;29105;57.764;40.952;2022-07-29T13:27:57;44.25;;;34.13;;
43509;SDS011;29105;57.764;40.952;2022-07-29T13:30:24;4.10;;;1.45;;
43509;SDS011;29105;57.764;40.952;2022-07-29T13:32:52;2.15;;;0.30;;
43509;SDS011;29105;57.764;40.952;2022-07-29T13:35:18;2.17;;;0.20;;
43509;SDS011;29105;57.764;40.952;2022-07-29T13:37:44;1.48;;;0.32;;
43509;SDS011;29105;57.764;40.952;2022-07-29T13:40:10;2.60;;;0.10;;
43509;SDS011;29105;57.764;40.952;2022-07-29T13:42:37;2.85;;;0.20;;
43509;SDS011;29105;57.764;40.952;2022-07-29T13:45:03;1.20;;;0.15;;
43509;SDS011;29105;57.764;40.952;2022-07-29T13:47:30;1.75;;;0.30;;
43509;SDS011;29105;57.764;40.952;2022-07-29T13:49:55;4.32;;;0.30;;
43509;SDS011;29105;57.764;40.952;2022-07-29T13:52:21;1.15;;;0.30;;
43509;SDS011;29105;57.764;40.952;2022-07-29T13:54:47;0.98;;;0.20;;
43509;SDS011;29105;57.764;40.952;2022-07-29T13:57:13;2.85;;;0.40;;
43509;SDS011;29105;57.764;40.952;2022-07-29T13:59:39;5.15;;;0.52;;
43509;SDS011;29105;57.764;40.952;2022-07-29T14:02:06;3.90;;;0.20;;
43509;SDS011;29105;57.764;40.952;2022-07-29T14:04:32;7.30;;;0.70;;
43509;SDS011;29105;57.764;40.952;2022-07-29T14:06:58;3.55;;;0.40;;
43509;SDS011;29105;57.764;40.952;2022-07-29T14:09:24;0.82;;;0.20;;
43509;SDS011;29105;57.764;40.952;2022-07-29T14:11:50;1.80;;;0.30;;
43509;SDS011;29105;57.764;40.952;2022-07-29T14:14:18;1.15;;;0.52;;
43509;SDS011;29105;57.764;40.952;2022-07-29T14:16:44;1.88;;;0.47;;
43509;SDS011;29105;57.764;40.952;2022-07-29T14:19:09;5.28;;;1.05;;
43509;SDS011;29105;57.764;40.952;2022-07-29T14:21:36;3.97;;;0.60;;
43509;SDS011;29105;57.764;40.952;2022-07-29T14:24:03;2.80;;;0.50;;
43509;SDS011;29105;57.764;40.952;2022-07-29T14:26:29;3.33;;;0.43;;
43509;SDS011;29105;57.764;40.952;2022-07-29T14:28:55;2.90;;;0.30;;
43509;SDS011;29105;57.764;40.952;2022-07-29T14:31:20;2.15;;;0.20;;
43509;SDS011;29105;57.764;40.952;2022-07-29T14:33:47;2.00;;;0.30;;
43509;SDS011;29105;57.764;40.952;2022-07-29T14:36:13;5.47;;;0.50;;
43509;SDS011;29105;57.764;40.952;2022-07-29T14:38:39;4.20;;;0.40;;
43509;SDS011;29105;57.764;40.952;2022-07-29T14:41:06;3.20;;;0.30;;
43509;SDS011;29105;57.764;40.952;2022-07-29T14:43:34;2.55;;;0.55;;
43509;SDS011;29105;57.764;40.952;2022-07-29T14:46:00;6.15;;;0.50;;
43509;SDS011;29105;57.764;40.952;2022-07-29T14:48:26;3.65;;;0.38;;
43509;SDS011;29105;57.764;40.952;2022-07-29T14:50:52;3.05;;;0.20;;
43509;SDS011;29105;57.764;40.952;2022-07-29T14:53:17;2.15;;;0.30;;
43509;SDS011;29105;57.764;40.952;2022-07-29T14:55:43;1.42;;;0.30;;
43509;SDS011;29105;57.764;40.952;2022-07-29T14:58:09;3.03;;;0.40;;
43509;SDS011;29105;57.764;40.952;2022-07-29T15:00:37;26.05;;;21.27;;
43509;SDS011;29105;57.764;40.952;2022-07-29T15:03:03;6.68;;;2.13;;
43509;SDS011;29105;57.764;40.952;2022-07-29T15:05:29;3.55;;;0.80;;
43509;SDS011;29105;57.764;40.952;2022-07-29T15:07:57;1.80;;;0.28;;
43509;SDS011;29105;57.764;40.952;2022-07-29T15:10:24;2.25;;;0.20;;
43509;SDS011;29105;57.764;40.952;2022-07-29T15:12:53;1.95;;;0.30;;
43509;SDS011;29105;57.764;40.952;2022-07-29T15:15:19;1.15;;;0.30;;
43509;SDS011;29105;57.764;40.952;2022-07-29T15:17:46;3.17;;;0.50;;
43509;SDS011;29105;57.764;40.952;2022-07-29T15:20:12;3.72;;;0.47;;
43509;SDS011;29105;57.764;40.952;2022-07-29T15:22:38;3.42;;;0.20;;